createdAt,value
2023-03-12T00:01:18.164Z,95472.25
2023-03-12T00:03:45.213Z,95473.84
2023-03-12T00:06:11.905Z,95473.41
2023-03-12T00:08:38.835Z,95473.66
2023-03-12T00:11:07.623Z,95485.72
2023-03-12T00:13:34.022Z,95476.94
2023-03-12T00:16:08.653Z,95479.88
2023-03-12T00:18:35.136Z,95487.19
2023-03-12T00:21:01.824Z,95493.28
2023-03-12T00:23:28.245Z,95495.94
2023-03-12T00:25:54.613Z,95493.28
2023-03-12T00:28:21.057Z,95499.41
2023-03-12T00:30:47.485Z,95496.31
2023-03-12T00:33:13.902Z,95503.13
2023-03-12T00:35:40.414Z,95496.84
2023-03-12T00:38:06.845Z,95502.44
2023-03-12T00:40:33.238Z,95515.38
2023-03-12T00:42:59.622Z,95517.06
2023-03-12T00:45:26.040Z,95517.84
2023-03-12T00:47:52.540Z,95523.34
2023-03-12T00:50:19.002Z,95518.72
2023-03-12T00:52:45.406Z,95522.75
2023-03-12T00:55:11.807Z,95522.94
2023-03-12T00:57:38.236Z,95524.69
2023-03-12T01:00:10.147Z,95529.00
2023-03-12T01:02:38.226Z,95542.94
2023-03-12T01:05:06.384Z,95548.03
2023-03-12T01:07:33.000Z,95549.72
2023-03-12T01:09:59.652Z,95562.06
2023-03-12T01:12:26.258Z,95554.44
2023-03-12T01:14:52.747Z,95567.22
2023-03-12T01:17:19.275Z,95566.81
2023-03-12T01:19:45.761Z,95578.13
2023-03-12T01:22:12.140Z,95585.56
2023-03-12T01:24:38.536Z,95589.88
2023-03-12T01:27:05.062Z,95590.84
2023-03-12T01:29:31.439Z,95593.84
2023-03-12T01:31:57.895Z,95602.41
2023-03-12T01:34:24.299Z,95593.47
2023-03-12T01:36:50.731Z,95602.84
2023-03-12T01:39:17.212Z,95611.56
2023-03-12T01:41:43.665Z,95617.84
2023-03-12T01:44:14.677Z,95611.00
2023-03-12T01:46:43.805Z,95620.47
2023-03-12T01:49:19.208Z,95620.94
2023-03-12T01:51:46.738Z,95626.63
2023-03-12T01:54:20.034Z,95627.31
2023-03-12T01:56:47.682Z,95629.50
2023-03-12T01:59:28.556Z,95632.81
2023-03-12T02:01:55.302Z,95635.19
2023-03-12T02:04:25.558Z,95635.25
2023-03-12T02:07:05.959Z,95640.19
2023-03-12T02:09:34.835Z,95652.63
2023-03-12T02:12:01.242Z,95652.28
2023-03-12T02:14:27.824Z,95648.97
2023-03-12T02:16:55.583Z,95658.06
2023-03-12T02:19:59.759Z,95659.47
2023-03-12T02:22:26.570Z,95656.19
2023-03-12T02:25:06.639Z,95662.19
2023-03-12T02:27:36.049Z,95660.06
2023-03-12T02:30:04.677Z,95661.16
2023-03-12T02:32:36.134Z,95655.06
2023-03-12T02:35:04.034Z,95668.44
2023-03-12T02:37:30.429Z,95665.78
2023-03-12T02:40:05.858Z,95673.28
2023-03-12T02:42:33.318Z,95675.97
2023-03-12T02:45:00.880Z,95675.78
2023-03-12T02:47:27.501Z,95685.59
2023-03-12T02:49:53.948Z,95688.75
2023-03-12T02:52:20.356Z,95695.78
2023-03-12T02:54:46.934Z,95692.44
2023-03-12T02:57:13.389Z,95694.84
2023-03-12T02:59:39.744Z,95694.31
2023-03-12T03:02:06.965Z,95695.63
2023-03-12T03:04:34.905Z,95706.41
2023-03-12T03:07:01.559Z,95705.69
2023-03-12T03:09:28.503Z,95717.22
2023-03-12T03:11:54.872Z,95715.50
2023-03-12T03:14:21.312Z,95723.47
2023-03-12T03:16:47.686Z,95731.47
2023-03-12T03:19:14.115Z,95739.97
2023-03-12T03:21:40.578Z,95734.47
2023-03-12T03:24:07.186Z,95738.44
2023-03-12T03:26:33.578Z,95737.94
2023-03-12T03:28:59.962Z,95746.88
2023-03-12T03:31:26.452Z,95750.91
2023-03-12T03:33:52.961Z,95760.50
2023-03-12T03:36:19.474Z,95764.22
2023-03-12T03:38:49.250Z,95763.47
2023-03-12T03:41:17.687Z,95780.00
2023-03-12T03:43:44.382Z,95770.25
2023-03-12T03:46:12.618Z,95770.97
2023-03-12T03:48:39.236Z,95776.31
2023-03-12T03:51:10.293Z,95778.22
2023-03-12T03:53:36.942Z,95782.38
2023-03-12T03:56:12.512Z,95785.75
2023-03-12T03:58:38.893Z,95792.09
2023-03-12T04:01:06.178Z,95803.41
2023-03-12T04:03:33.588Z,95807.34
2023-03-12T04:06:02.076Z,95804.13
2023-03-12T04:08:28.968Z,95808.56
2023-03-12T04:10:55.721Z,95809.88
2023-03-12T04:13:22.118Z,95816.44
2023-03-12T04:15:50.606Z,95816.28
2023-03-12T04:18:17.601Z,95821.53
2023-03-12T04:20:44.413Z,95821.59
2023-03-12T04:23:11.474Z,95825.53
2023-03-12T04:25:38.620Z,95828.94
2023-03-12T04:28:05.840Z,95835.28
2023-03-12T04:30:32.373Z,95832.91
2023-03-12T04:32:58.864Z,95829.78
2023-03-12T04:35:25.271Z,95835.09
2023-03-12T04:37:52.047Z,95839.91
2023-03-12T04:40:19.906Z,95846.75
2023-03-12T04:42:46.555Z,95848.28
2023-03-12T04:45:13.032Z,95852.78
2023-03-12T04:47:39.416Z,95854.66
2023-03-12T04:50:06.500Z,95860.44
2023-03-12T04:52:32.922Z,95857.72
2023-03-12T04:55:00.432Z,95863.25
2023-03-12T04:57:26.874Z,95871.03
2023-03-12T04:59:53.654Z,95876.50
2023-03-12T05:02:20.044Z,95878.94
2023-03-12T05:04:46.411Z,95879.28
2023-03-12T05:07:12.863Z,95895.03
2023-03-12T05:09:39.235Z,95888.72
2023-03-12T05:12:06.110Z,95896.13
2023-03-12T05:14:32.474Z,95894.00
2023-03-12T05:16:58.882Z,95894.78
2023-03-12T05:19:25.238Z,95900.09
2023-03-12T05:21:51.767Z,95895.06
2023-03-12T05:24:19.034Z,95900.88
2023-03-12T05:26:45.462Z,95900.31
2023-03-12T05:29:11.823Z,95903.97
2023-03-12T05:31:38.251Z,95908.09
2023-03-12T05:34:05.396Z,95909.81
2023-03-12T05:36:31.979Z,95912.00
2023-03-12T05:38:58.372Z,95918.34
2023-03-12T05:41:29.540Z,95934.63
2023-03-12T05:43:57.531Z,95926.22
2023-03-12T05:46:25.316Z,95921.72
2023-03-12T05:48:52.175Z,95924.91
2023-03-12T05:51:18.900Z,95932.78
2023-03-12T05:53:45.539Z,95934.59
2023-03-12T05:56:14.626Z,95943.56
2023-03-12T05:58:41.038Z,95942.50
2023-03-12T06:01:18.520Z,95939.81
2023-03-12T06:03:45.875Z,95938.81
2023-03-12T06:06:12.496Z,95936.22
2023-03-12T06:08:40.071Z,95940.16
2023-03-12T06:11:06.641Z,95947.78
2023-03-12T06:13:33.702Z,95938.25
2023-03-12T06:16:09.592Z,95952.00
2023-03-12T06:18:36.143Z,95944.16
2023-03-12T06:21:14.689Z,95946.78
2023-03-12T06:23:42.118Z,95950.44
2023-03-12T06:26:10.132Z,95944.94
2023-03-12T06:28:37.134Z,95940.97
2023-03-12T06:31:04.329Z,95949.38
2023-03-12T06:33:31.912Z,95958.31
2023-03-12T06:36:01.387Z,95951.50
2023-03-12T06:38:28.598Z,95962.00
2023-03-12T06:41:16.432Z,95960.41
2023-03-12T06:43:43.968Z,95964.59
2023-03-12T06:46:13.460Z,95961.97
2023-03-12T06:48:41.474Z,95947.50
2023-03-12T06:51:09.948Z,95950.88
2023-03-12T06:53:36.624Z,95957.16
2023-03-12T06:56:03.704Z,95957.38
2023-03-12T06:58:30.624Z,95961.28
2023-03-12T07:00:57.522Z,95971.75
2023-03-12T07:03:24.436Z,95977.16
2023-03-12T07:05:51.337Z,95981.13
2023-03-12T07:08:18.693Z,95990.56
2023-03-12T07:10:45.638Z,95996.41
2023-03-12T07:13:13.024Z,96005.53
2023-03-12T07:15:39.686Z,96016.94
2023-03-12T07:18:09.697Z,96032.19
2023-03-12T07:20:38.657Z,96037.81
2023-03-12T07:23:05.694Z,96036.06
2023-03-12T07:25:36.241Z,96047.38
2023-03-12T07:28:02.841Z,96054.03
2023-03-12T07:30:33.240Z,96054.44
2023-03-12T07:33:11.675Z,96060.91
2023-03-12T07:35:39.358Z,96056.72
2023-03-12T07:38:06.177Z,96065.66
2023-03-12T07:40:32.627Z,96066.34
2023-03-12T07:42:59.068Z,96061.97
2023-03-12T07:45:25.722Z,96077.97
2023-03-12T07:47:52.242Z,96086.22
2023-03-12T07:50:19.102Z,96085.94
2023-03-12T07:52:46.859Z,96102.78
2023-03-12T07:55:13.643Z,96093.69
2023-03-12T07:57:40.213Z,96083.56
2023-03-12T08:00:08.598Z,96088.47
2023-03-12T08:02:35.070Z,96089.50
2023-03-12T08:05:01.960Z,96107.25
2023-03-12T08:07:32.546Z,96099.72
2023-03-12T08:10:00.089Z,96111.19
2023-03-12T08:12:27.187Z,96111.75
2023-03-12T08:14:53.667Z,96109.94
2023-03-12T08:17:20.489Z,96125.31
2023-03-12T08:19:46.979Z,96125.81
2023-03-12T08:22:13.429Z,96120.31
2023-03-12T08:24:39.870Z,96121.75
2023-03-12T08:27:06.269Z,96115.91
2023-03-12T08:29:33.471Z,96116.88
2023-03-12T08:32:05.011Z,96116.53
2023-03-12T08:34:33.541Z,96114.25
2023-03-12T08:37:00.034Z,96116.03
2023-03-12T08:39:26.513Z,96117.44
2023-03-12T08:41:55.681Z,96117.16
2023-03-12T08:44:23.635Z,96111.75
2023-03-12T08:46:51.328Z,96116.44
2023-03-12T08:49:18.213Z,96116.63
2023-03-12T08:51:44.666Z,96122.44
2023-03-12T08:54:11.051Z,96114.25
2023-03-12T08:56:41.776Z,96114.41
2023-03-12T08:59:12.086Z,96112.00
2023-03-12T09:01:40.664Z,96113.94
2023-03-12T09:04:09.001Z,96117.88
2023-03-12T09:06:35.530Z,96116.22
2023-03-12T09:09:05.921Z,96122.34
2023-03-12T09:11:34.071Z,96123.19
2023-03-12T09:14:46.286Z,96117.00
2023-03-12T09:16:48.032Z,96117.19
2023-03-12T09:19:14.868Z,96122.28
2023-03-12T09:21:41.410Z,96124.28
2023-03-12T09:24:08.461Z,96118.34
2023-03-12T09:26:34.974Z,96115.84
2023-03-12T09:29:01.511Z,96121.78
2023-03-12T09:31:28.283Z,96130.22
2023-03-12T09:33:54.676Z,96126.22
2023-03-12T09:36:21.090Z,96134.75
2023-03-12T09:38:47.507Z,96125.66
2023-03-12T09:41:36.604Z,96126.88
2023-03-12T09:44:24.577Z,96126.94
2023-03-12T09:46:56.490Z,96130.53
2023-03-12T09:49:40.788Z,96126.72
2023-03-12T09:52:33.412Z,96131.28
2023-03-12T09:55:28.347Z,96130.38
2023-03-12T09:57:56.701Z,96132.88
2023-03-12T10:00:29.270Z,96128.31
2023-03-12T10:03:10.613Z,96130.09
2023-03-12T10:05:46.162Z,96129.38
2023-03-12T10:08:27.450Z,96133.47
2023-03-12T10:11:25.426Z,96127.84
2023-03-12T10:14:31.361Z,96133.25
2023-03-12T10:17:06.162Z,96127.56
2023-03-12T10:19:57.209Z,96133.56
2023-03-12T10:22:39.590Z,96128.06
2023-03-12T10:25:41.103Z,96131.84
2023-03-12T10:28:30.689Z,96130.56
2023-03-12T10:31:01.320Z,96133.72
2023-03-12T10:33:40.987Z,96123.13
2023-03-12T10:36:18.827Z,96117.81
2023-03-12T10:38:45.901Z,96113.69
2023-03-12T10:41:28.606Z,96116.53
2023-03-12T10:43:59.401Z,96116.28
2023-03-12T10:46:37.721Z,96119.28
2023-03-12T10:49:25.517Z,96119.19
2023-03-12T10:52:17.998Z,96129.34
2023-03-12T10:54:47.607Z,96127.50
2023-03-12T10:57:15.651Z,96127.50
2023-03-12T10:59:45.404Z,96128.56
2023-03-12T11:02:31.947Z,96131.63
2023-03-12T11:05:00.762Z,96133.19
2023-03-12T11:07:31.616Z,96136.53
2023-03-12T11:10:07.238Z,96143.91
2023-03-12T11:12:36.325Z,96141.25
2023-03-12T11:15:30.754Z,96150.81
2023-03-12T11:18:19.267Z,96132.41
2023-03-12T11:20:46.618Z,96132.72
2023-03-12T11:23:25.997Z,96135.06
2023-03-12T11:26:01.788Z,96127.19
2023-03-12T11:28:43.664Z,96139.47
2023-03-12T11:31:20.470Z,96134.44
2023-03-12T11:33:46.951Z,96129.34
2023-03-12T15:12:21.786Z,96073.78
2023-03-12T15:14:51.758Z,96083.81
2023-03-12T15:17:20.486Z,96082.03
2023-03-12T15:19:48.434Z,96083.44
2023-03-12T15:22:18.121Z,96077.50
2023-03-12T15:24:44.996Z,96079.22
2023-03-12T15:27:29.710Z,96079.38
2023-03-12T15:29:58.283Z,96078.91
2023-03-12T15:32:25.983Z,96073.28
2023-03-12T15:34:55.509Z,96072.03
2023-03-12T15:37:33.717Z,96080.16
2023-03-12T15:40:06.876Z,96079.88
2023-03-12T15:42:38.167Z,96077.97
2023-03-12T15:45:05.149Z,96076.88
2023-03-12T15:47:39.267Z,96072.47
2023-03-12T15:50:30.208Z,96066.81
2023-03-12T15:53:11.962Z,96080.25
2023-03-12T15:55:39.432Z,96073.16
2023-03-12T15:58:26.888Z,96072.19
2023-03-12T16:00:53.437Z,96074.25
2023-03-12T16:03:22.035Z,96087.69
2023-03-12T16:05:50.206Z,96085.63
2023-03-12T16:08:21.012Z,96095.34
2023-03-12T16:10:50.742Z,96089.81
2023-03-12T16:13:20.555Z,96097.66
2023-03-12T16:15:48.117Z,96110.94
2023-03-12T16:18:17.773Z,96121.22
2023-03-12T16:20:45.282Z,96131.34
2023-03-12T16:23:12.289Z,96132.44
2023-03-12T16:25:41.664Z,96136.28
2023-03-12T16:28:11.956Z,96132.06
2023-03-12T16:30:38.296Z,96136.72
2023-03-12T16:33:08.904Z,96134.00
2023-03-12T16:35:35.969Z,96146.63
2023-03-12T16:38:03.134Z,96136.16
2023-03-12T16:40:34.311Z,96141.31
2023-03-12T16:43:06.610Z,96151.38
2023-03-12T16:45:37.127Z,96145.50
2023-03-12T16:48:06.627Z,96153.50
2023-03-12T16:50:33.066Z,96156.38
2023-03-12T16:52:59.853Z,96161.28
2023-03-12T16:55:29.651Z,96168.31
2023-03-12T16:58:00.220Z,96177.25
2023-03-12T17:00:32.987Z,96183.06
2023-03-12T17:02:59.797Z,96182.34
2023-03-12T17:05:28.772Z,96192.97
2023-03-12T17:07:56.049Z,96206.94
2023-03-12T17:10:23.520Z,96218.03
2023-03-12T17:12:50.739Z,96218.72
2023-03-12T17:15:21.508Z,96235.84
2023-03-12T17:17:49.452Z,96236.22
2023-03-12T17:20:18.868Z,96232.75
2023-03-12T17:22:45.799Z,96227.78
2023-03-12T17:25:20.418Z,96239.28
2023-03-12T17:27:46.781Z,96245.88
2023-03-12T17:30:13.463Z,96244.59
2023-03-12T17:32:40.019Z,96247.31
2023-03-12T17:35:06.988Z,96242.69
2023-03-12T17:37:34.449Z,96255.06
2023-03-12T17:40:01.650Z,96256.69
2023-03-12T17:42:28.316Z,96267.66
2023-03-12T17:44:54.695Z,96264.44
2023-03-12T17:47:21.069Z,96270.75
2023-03-12T17:49:47.391Z,96277.44
2023-03-12T17:52:13.822Z,96276.66
2023-03-12T17:54:40.316Z,96282.75
2023-03-12T17:57:06.686Z,96288.53
2023-03-12T17:59:33.036Z,96290.06
2023-03-12T18:01:59.517Z,96307.97
2023-03-12T18:04:25.924Z,96308.56
2023-03-12T18:06:52.338Z,96322.59
2023-03-12T18:09:18.742Z,96322.22
2023-03-12T18:11:45.177Z,96329.16
2023-03-12T18:14:11.594Z,96337.50
2023-03-12T18:16:38.241Z,96345.19
2023-03-12T18:19:04.672Z,96339.69
2023-03-12T18:21:31.032Z,96353.34
2023-03-12T18:24:02.075Z,96355.81
2023-03-12T18:26:34.656Z,96357.78
2023-03-12T18:29:03.906Z,96357.84
2023-03-12T18:31:30.293Z,96374.31
2023-03-12T18:33:56.746Z,96375.75
2023-03-12T18:36:23.154Z,96375.50
2023-03-12T18:38:49.520Z,96367.63
2023-03-12T18:41:16.199Z,96367.50
2023-03-12T18:43:42.634Z,96365.63
2023-03-12T18:46:09.350Z,96367.03
2023-03-12T18:48:35.969Z,96368.72
2023-03-12T18:51:02.366Z,96369.78
2023-03-12T18:53:29.189Z,96370.88
2023-03-12T18:55:57.809Z,96369.31
2023-03-12T18:58:25.910Z,96370.94
2023-03-12T19:00:56.888Z,96378.34
2023-03-12T19:03:23.776Z,96386.09
2023-03-12T19:06:04.869Z,96389.41
2023-03-12T19:08:31.602Z,96396.75
2023-03-12T19:10:58.264Z,96390.72
2023-03-12T19:13:24.767Z,96390.16
2023-03-12T19:15:57.959Z,96393.78
2023-03-12T19:18:24.241Z,96398.59
2023-03-12T19:20:50.694Z,96399.72
2023-03-12T19:23:17.103Z,96400.38
2023-03-12T19:25:43.482Z,96408.63
2023-03-12T19:28:09.820Z,96410.31
2023-03-12T19:30:36.223Z,96405.00
2023-03-12T19:33:03.639Z,96410.97
2023-03-12T19:35:30.170Z,96407.59
2023-03-12T19:37:59.389Z,96402.81
2023-03-12T19:40:25.840Z,96411.34
2023-03-12T19:42:52.196Z,96415.34
2023-03-12T19:45:18.637Z,96418.53
2023-03-12T19:47:45.021Z,96424.38
2023-03-12T19:50:12.322Z,96423.28
2023-03-12T19:52:38.783Z,96422.44
2023-03-12T19:55:05.949Z,96433.03
2023-03-12T19:57:34.460Z,96433.28
2023-03-12T20:00:00.913Z,96440.75
2023-03-12T20:02:27.411Z,96446.59
2023-03-12T20:04:55.210Z,96453.50
2023-03-12T20:07:21.642Z,96454.25
2023-03-12T20:09:48.059Z,96457.53
2023-03-12T20:12:14.552Z,96460.22
2023-03-12T20:14:42.805Z,96466.13
2023-03-12T20:17:09.869Z,96470.66
2023-03-12T20:19:36.303Z,96474.06
2023-03-12T20:22:02.693Z,96476.69
2023-03-12T20:24:29.155Z,96494.44
2023-03-12T20:26:55.544Z,96492.34
2023-03-12T20:29:22.054Z,96494.69
2023-03-12T20:31:48.551Z,96500.00
2023-03-12T20:34:15.004Z,96508.78
2023-03-12T20:36:41.440Z,96515.66
2023-03-12T20:39:07.954Z,96514.38
2023-03-12T20:41:34.442Z,96523.59
2023-03-12T20:44:00.853Z,96530.47
2023-03-12T20:46:27.727Z,96535.50
2023-03-12T20:48:56.640Z,96526.25
2023-03-12T20:51:24.661Z,96541.84
2023-03-12T20:53:51.113Z,96538.69
2023-03-12T20:56:17.480Z,96549.53
2023-03-12T20:58:43.873Z,96546.34
2023-03-12T21:01:10.869Z,96551.91
2023-03-12T21:03:37.470Z,96550.63
2023-03-12T21:06:04.190Z,96558.56
2023-03-12T21:08:30.867Z,96569.13
2023-03-12T21:10:57.261Z,96565.16
2023-03-12T21:13:24.073Z,96564.38
2023-03-12T21:15:52.024Z,96568.34
2023-03-12T21:18:18.993Z,96575.75
2023-03-12T21:20:45.658Z,96575.75
2023-03-12T21:23:12.225Z,96572.56
2023-03-12T21:25:40.799Z,96573.34
2023-03-12T21:28:08.493Z,96581.03
2023-03-12T21:30:35.037Z,96589.19
2023-03-12T21:33:02.634Z,96588.94
2023-03-12T21:35:29.275Z,96596.34
2023-03-12T21:37:58.969Z,96602.69
2023-03-12T21:40:25.402Z,96599.25
2023-03-12T21:42:51.773Z,96604.78
2023-03-12T21:45:18.218Z,96605.34
2023-03-12T21:47:44.655Z,96609.28
2023-03-12T21:50:11.696Z,96616.97
2023-03-12T21:52:43.721Z,96608.50
2023-03-12T21:55:10.528Z,96614.31
2023-03-12T21:57:36.932Z,96617.19
2023-03-12T22:00:04.538Z,96628.28
2023-03-12T22:02:31.611Z,96621.69
2023-03-12T22:05:01.064Z,96621.94
2023-03-12T22:07:29.941Z,96623.25
2023-03-12T22:09:56.768Z,96617.44
2023-03-12T22:12:23.270Z,96623.53
2023-03-12T22:14:49.681Z,96623.25
2023-03-12T22:17:17.056Z,96622.97
2023-03-12T22:19:43.954Z,96626.16
2023-03-12T22:22:11.063Z,96628.50
2023-03-12T22:24:37.545Z,96629.59
2023-03-12T22:27:06.469Z,96633.56
2023-03-12T22:29:33.723Z,96624.84
2023-03-12T22:32:00.129Z,96626.94
2023-03-12T22:34:26.598Z,96636.41
2023-03-12T22:36:52.990Z,96629.00
2023-03-12T22:39:19.797Z,96621.63
2023-03-12T22:41:50.538Z,96610.28
2023-03-12T22:44:16.942Z,96616.38
2023-03-12T22:46:43.350Z,96614.50
2023-03-12T22:49:09.769Z,96607.94
2023-03-12T22:51:36.209Z,96606.38
2023-03-12T22:54:02.654Z,96597.34
2023-03-12T22:56:29.334Z,96589.94
2023-03-12T22:58:55.948Z,96593.66
2023-03-12T23:01:23.417Z,96584.16
2023-03-12T23:03:50.077Z,96584.66
2023-03-12T23:06:22.464Z,96589.94
2023-03-12T23:08:49.636Z,96590.13
2023-03-12T23:11:17.382Z,96587.50
2023-03-12T23:13:45.730Z,96586.72
2023-03-12T23:16:16.533Z,96588.84
2023-03-12T23:18:43.135Z,96589.03
2023-03-12T23:21:12.316Z,96590.84
2023-03-12T23:23:41.115Z,96586.88
2023-03-12T23:26:07.949Z,96598.03
2023-03-12T23:28:34.419Z,96596.69
2023-03-12T23:31:03.634Z,96597.16
2023-03-12T23:33:31.326Z,96593.44
2023-03-12T23:36:00.904Z,96594.75
2023-03-12T23:38:29.222Z,96594.03
2023-03-12T23:41:03.498Z,96599.50
2023-03-12T23:43:30.234Z,96601.91
2023-03-12T23:46:01.736Z,96602.97
2023-03-12T23:48:30.363Z,96596.44
2023-03-12T23:51:12.045Z,96598.56
2023-03-12T23:53:42.293Z,96592.75
2023-03-12T23:56:11.923Z,96595.63
2023-03-12T23:58:38.809Z,96590.09
